sensor_id;sensor_type;location;lat;lon;timestamp;pressure;altitude;pressure_sealevel;temperature;humidity
37368;BME280;23240;43.210;27.910;2022-10-30T00:01:42;101843.38;;;10.18;100.00
37368;BME280;23240;43.210;27.910;2022-10-30T00:04:08;101844.34;;;10.17;100.00
37368;BME280;23240;43.210;27.910;2022-10-30T00:06:33;101841.66;;;10.17;100.00
37368;BME280;23240;43.210;27.910;2022-10-30T00:08:59;101844.53;;;10.14;100.00
37368;BME280;23240;43.210;27.910;2022-10-30T00:11:24;101848.28;;;10.12;100.00
37368;BME280;23240;43.210;27.910;2022-10-30T00:13:50;101843.19;;;10.07;100.00
37368;BME280;23240;43.210;27.910;2022-10-30T00:16:15;101837.91;;;10.05;100.00
37368;BME280;23240;43.210;27.910;2022-10-30T00:18:41;101836.50;;;10.00;100.00
37368;BME280;23240;43.210;27.910;2022-10-30T00:21:12;101837.25;;;9.88;100.00
37368;BME280;23240;43.210;27.910;2022-10-30T00:23:43;101827.50;;;9.87;100.00
37368;BME280;23240;43.210;27.910;2022-10-30T00:26:09;101826.84;;;9.83;100.00
37368;BME280;23240;43.210;27.910;2022-10-30T00:28:34;101825.47;;;9.76;100.00
37368;BME280;23240;43.210;27.910;2022-10-30T00:31:01;101824.13;;;9.69;100.00
37368;BME280;23240;43.210;27.910;2022-10-30T00:33:27;101820.69;;;9.67;100.00
37368;BME280;23240;43.210;27.910;2022-10-30T00:35:52;101830.72;;;9.63;100.00
37368;BME280;23240;43.210;27.910;2022-10-30T00:38:18;101819.34;;;9.60;100.00
37368;BME280;23240;43.210;27.910;2022-10-30T00:40:43;101827.78;;;9.68;100.00
37368;BME280;23240;43.210;27.910;2022-10-30T00:43:35;101813.44;;;9.69;100.00
37368;BME280;23240;43.210;27.910;2022-10-30T00:48:56;101812.59;;;9.68;100.00
37368;BME280;23240;43.210;27.910;2022-10-30T00:51:22;101814.84;;;9.60;100.00
37368;BME280;23240;43.210;27.910;2022-10-30T00:53:49;101816.94;;;9.55;100.00
37368;BME280;23240;43.210;27.910;2022-10-30T00:56:18;101809.69;;;9.57;100.00
37368;BME280;23240;43.210;27.910;2022-10-30T00:58:51;101808.38;;;9.64;100.00
37368;BME280;23240;43.210;27.910;2022-10-30T01:01:21;101807.41;;;9.65;100.00
37368;BME280;23240;43.210;27.910;2022-10-30T01:03:51;101811.22;;;9.61;100.00
37368;BME280;23240;43.210;27.910;2022-10-30T01:06:20;101796.03;;;9.62;100.00
37368;BME280;23240;43.210;27.910;2022-10-30T01:08:46;101793.06;;;9.66;100.00
37368;BME280;23240;43.210;27.910;2022-10-30T01:11:12;101792.22;;;9.66;100.00
37368;BME280;23240;43.210;27.910;2022-10-30T01:13:38;101794.03;;;9.65;100.00
37368;BME280;23240;43.210;27.910;2022-10-30T01:28:00;101782.84;;;9.14;100.00
37368;BME280;23240;43.210;27.910;2022-10-30T01:33:50;101779.00;;;8.88;100.00
37368;BME280;23240;43.210;27.910;2022-10-30T01:38:53;101780.34;;;8.81;100.00
37368;BME280;23240;43.210;27.910;2022-10-30T01:41:19;101775.75;;;8.83;100.00
37368;BME280;23240;43.210;27.910;2022-10-30T01:43:47;101775.25;;;8.77;100.00
37368;BME280;23240;43.210;27.910;2022-10-30T01:51:59;101776.22;;;8.44;100.00
37368;BME280;23240;43.210;27.910;2022-10-30T01:57:22;101772.19;;;8.37;100.00
37368;BME280;23240;43.210;27.910;2022-10-30T02:00:05;101779.94;;;8.41;100.00
37368;BME280;23240;43.210;27.910;2022-10-30T02:02:31;101775.53;;;8.40;100.00
37368;BME280;23240;43.210;27.910;2022-10-30T02:04:57;101778.97;;;8.42;100.00
37368;BME280;23240;43.210;27.910;2022-10-30T02:07:23;101776.97;;;8.46;100.00
37368;BME280;23240;43.210;27.910;2022-10-30T02:09:50;101784.31;;;8.42;100.00
37368;BME280;23240;43.210;27.910;2022-10-30T02:12:17;101787.16;;;8.39;100.00
37368;BME280;23240;43.210;27.910;2022-10-30T02:14:46;101786.06;;;8.26;100.00
37368;BME280;23240;43.210;27.910;2022-10-30T02:17:12;101789.09;;;8.20;100.00
37368;BME280;23240;43.210;27.910;2022-10-30T02:19:38;101776.19;;;8.12;100.00
37368;BME280;23240;43.210;27.910;2022-10-30T02:22:04;101777.03;;;8.13;100.00
37368;BME280;23240;43.210;27.910;2022-10-30T02:24:30;101780.97;;;8.06;100.00
37368;BME280;23240;43.210;27.910;2022-10-30T02:26:56;101781.06;;;8.04;100.00
37368;BME280;23240;43.210;27.910;2022-10-30T02:29:22;101784.19;;;8.12;100.00
37368;BME280;23240;43.210;27.910;2022-10-30T02:31:47;101781.44;;;8.14;100.00
37368;BME280;23240;43.210;27.910;2022-10-30T02:34:13;101789.69;;;8.09;100.00
37368;BME280;23240;43.210;27.910;2022-10-30T02:36:39;101777.44;;;8.05;100.00
37368;BME280;23240;43.210;27.910;2022-10-30T02:39:04;101778.06;;;8.10;100.00
37368;BME280;23240;43.210;27.910;2022-10-30T02:41:31;101775.13;;;8.15;100.00
37368;BME280;23240;43.210;27.910;2022-10-30T02:43:57;101770.91;;;8.11;100.00
37368;BME280;23240;43.210;27.910;2022-10-30T02:46:23;101768.25;;;8.11;100.00
37368;BME280;23240;43.210;27.910;2022-10-30T02:48:49;101774.16;;;8.00;100.00
37368;BME280;23240;43.210;27.910;2022-10-30T02:51:14;101771.22;;;7.89;100.00
37368;BME280;23240;43.210;27.910;2022-10-30T02:53:40;101772.66;;;7.79;100.00
37368;BME280;23240;43.210;27.910;2022-10-30T02:56:11;101776.59;;;7.71;100.00
37368;BME280;23240;43.210;27.910;2022-10-30T02:58:37;101779.88;;;7.77;100.00
37368;BME280;23240;43.210;27.910;2022-10-30T03:01:14;101780.22;;;7.70;100.00
37368;BME280;23240;43.210;27.910;2022-10-30T03:03:41;101779.16;;;7.73;100.00
37368;BME280;23240;43.210;27.910;2022-10-30T03:06:12;101780.97;;;7.72;100.00
37368;BME280;23240;43.210;27.910;2022-10-30T03:08:37;101783.88;;;7.68;100.00
37368;BME280;23240;43.210;27.910;2022-10-30T03:11:14;101781.06;;;7.71;100.00
37368;BME280;23240;43.210;27.910;2022-10-30T03:13:41;101789.78;;;7.75;100.00
37368;BME280;23240;43.210;27.910;2022-10-30T03:16:19;101783.66;;;7.72;100.00
37368;BME280;23240;43.210;27.910;2022-10-30T03:18:45;101789.84;;;7.73;100.00
37368;BME280;23240;43.210;27.910;2022-10-30T03:21:14;101791.50;;;7.76;100.00
37368;BME280;23240;43.210;27.910;2022-10-30T03:23:40;101787.00;;;7.76;100.00
37368;BME280;23240;43.210;27.910;2022-10-30T03:26:05;101786.31;;;7.72;100.00
37368;BME280;23240;43.210;27.910;2022-10-30T03:28:31;101786.41;;;7.71;100.00
37368;BME280;23240;43.210;27.910;2022-10-30T03:31:00;101783.50;;;7.76;100.00
37368;BME280;23240;43.210;27.910;2022-10-30T03:33:25;101782.22;;;7.83;100.00
37368;BME280;23240;43.210;27.910;2022-10-30T03:35:51;101784.00;;;7.82;100.00
37368;BME280;23240;43.210;27.910;2022-10-30T03:38:16;101780.50;;;7.82;100.00
37368;BME280;23240;43.210;27.910;2022-10-30T03:40:42;101778.63;;;7.84;100.00
37368;BME280;23240;43.210;27.910;2022-10-30T03:43:07;101786.88;;;7.79;100.00
37368;BME280;23240;43.210;27.910;2022-10-30T03:45:33;101773.94;;;7.71;100.00
37368;BME280;23240;43.210;27.910;2022-10-30T03:48:03;101784.06;;;7.65;100.00
37368;BME280;23240;43.210;27.910;2022-10-30T03:50:29;101789.31;;;7.66;100.00
37368;BME280;23240;43.210;27.910;2022-10-30T03:52:55;101782.06;;;7.68;100.00
37368;BME280;23240;43.210;27.910;2022-10-30T03:55:21;101779.34;;;7.70;100.00
37368;BME280;23240;43.210;27.910;2022-10-30T03:57:47;101778.78;;;7.81;100.00
37368;BME280;23240;43.210;27.910;2022-10-30T04:00:13;101769.47;;;7.88;100.00
37368;BME280;23240;43.210;27.910;2022-10-30T04:02:44;101766.50;;;7.94;100.00
37368;BME280;23240;43.210;27.910;2022-10-30T04:05:10;101767.47;;;7.93;100.00
37368;BME280;23240;43.210;27.910;2022-10-30T04:07:35;101761.94;;;7.96;100.00
37368;BME280;23240;43.210;27.910;2022-10-30T04:10:01;101765.31;;;7.99;100.00
37368;BME280;23240;43.210;27.910;2022-10-30T04:12:26;101765.22;;;8.01;100.00
37368;BME280;23240;43.210;27.910;2022-10-30T04:14:52;101761.44;;;8.05;100.00
37368;BME280;23240;43.210;27.910;2022-10-30T04:17:18;101764.59;;;7.96;100.00
37368;BME280;23240;43.210;27.910;2022-10-30T04:19:43;101758.31;;;7.97;100.00
37368;BME280;23240;43.210;27.910;2022-10-30T04:22:09;101762.63;;;7.99;100.00
37368;BME280;23240;43.210;27.910;2022-10-30T04:24:34;101768.47;;;7.90;100.00
37368;BME280;23240;43.210;27.910;2022-10-30T04:26:59;101770.63;;;7.84;100.00
37368;BME280;23240;43.210;27.910;2022-10-30T04:29:25;101766.19;;;7.83;100.00
37368;BME280;23240;43.210;27.910;2022-10-30T04:31:50;101762.78;;;7.81;100.00
37368;BME280;23240;43.210;27.910;2022-10-30T04:34:16;101764.47;;;7.82;100.00
37368;BME280;23240;43.210;27.910;2022-10-30T04:36:41;101771.72;;;7.80;100.00
37368;BME280;23240;43.210;27.910;2022-10-30T04:39:07;101765.44;;;7.81;100.00
37368;BME280;23240;43.210;27.910;2022-10-30T04:41:32;101760.00;;;7.82;100.00
37368;BME280;23240;43.210;27.910;2022-10-30T04:43:58;101759.34;;;7.79;100.00
37368;BME280;23240;43.210;27.910;2022-10-30T04:46:23;101758.19;;;7.83;100.00
37368;BME280;23240;43.210;27.910;2022-10-30T04:48:49;101771.47;;;7.84;100.00
37368;BME280;23240;43.210;27.910;2022-10-30T04:51:14;101774.63;;;7.75;100.00
37368;BME280;23240;43.210;27.910;2022-10-30T04:53:40;101772.97;;;7.72;100.00
37368;BME280;23240;43.210;27.910;2022-10-30T04:56:06;101770.88;;;7.62;100.00
37368;BME280;23240;43.210;27.910;2022-10-30T04:58:32;101769.50;;;7.55;100.00
37368;BME280;23240;43.210;27.910;2022-10-30T05:01:04;101775.50;;;7.58;100.00
37368;BME280;23240;43.210;27.910;2022-10-30T05:03:30;101773.69;;;7.59;100.00
37368;BME280;23240;43.210;27.910;2022-10-30T05:06:01;101770.28;;;7.57;100.00
37368;BME280;23240;43.210;27.910;2022-10-30T05:08:28;101771.47;;;7.51;100.00
37368;BME280;23240;43.210;27.910;2022-10-30T05:10:53;101773.31;;;7.49;100.00
37368;BME280;23240;43.210;27.910;2022-10-30T05:13:20;101766.13;;;7.51;100.00
37368;BME280;23240;43.210;27.910;2022-10-30T05:15:45;101771.47;;;7.51;100.00
37368;BME280;23240;43.210;27.910;2022-10-30T05:18:10;101766.28;;;7.48;100.00
37368;BME280;23240;43.210;27.910;2022-10-30T05:20:36;101765.78;;;7.57;100.00
37368;BME280;23240;43.210;27.910;2022-10-30T05:23:01;101765.66;;;7.60;100.00
37368;BME280;23240;43.210;27.910;2022-10-30T05:25:27;101767.22;;;7.64;100.00
37368;BME280;23240;43.210;27.910;2022-10-30T05:28:00;101759.81;;;7.69;100.00
37368;BME280;23240;43.210;27.910;2022-10-30T05:30:27;101771.41;;;7.68;100.00
37368;BME280;23240;43.210;27.910;2022-10-30T05:33:04;101768.09;;;7.81;100.00
37368;BME280;23240;43.210;27.910;2022-10-30T05:35:31;101768.00;;;7.82;100.00
37368;BME280;23240;43.210;27.910;2022-10-30T05:37:59;101770.69;;;7.82;100.00
37368;BME280;23240;43.210;27.910;2022-10-30T05:40:24;101772.59;;;7.80;100.00
37368;BME280;23240;43.210;27.910;2022-10-30T05:42:50;101772.66;;;7.79;100.00
37368;BME280;23240;43.210;27.910;2022-10-30T05:45:16;101770.53;;;7.85;100.00
37368;BME280;23240;43.210;27.910;2022-10-30T05:47:42;101769.56;;;7.86;100.00
37368;BME280;23240;43.210;27.910;2022-10-30T05:50:09;101766.66;;;7.91;100.00
37368;BME280;23240;43.210;27.910;2022-10-30T05:52:35;101765.91;;;7.89;100.00
37368;BME280;23240;43.210;27.910;2022-10-30T05:55:01;101767.72;;;8.04;100.00
37368;BME280;23240;43.210;27.910;2022-10-30T05:57:28;101767.28;;;8.12;100.00
37368;BME280;23240;43.210;27.910;2022-10-30T05:59:54;101765.84;;;8.22;100.00
37368;BME280;23240;43.210;27.910;2022-10-30T06:02:19;101761.53;;;8.35;100.00
37368;BME280;23240;43.210;27.910;2022-10-30T06:04:45;101749.50;;;8.44;100.00
37368;BME280;23240;43.210;27.910;2022-10-30T06:07:13;101748.84;;;8.56;100.00
37368;BME280;23240;43.210;27.910;2022-10-30T06:09:40;101744.00;;;8.63;100.00
37368;BME280;23240;43.210;27.910;2022-10-30T06:12:05;101739.41;;;8.65;100.00
37368;BME280;23240;43.210;27.910;2022-10-30T06:14:31;101741.81;;;8.69;100.00
37368;BME280;23240;43.210;27.910;2022-10-30T06:16:56;101738.47;;;8.66;100.00
37368;BME280;23240;43.210;27.910;2022-10-30T06:19:22;101741.75;;;8.71;100.00
37368;BME280;23240;43.210;27.910;2022-10-30T06:21:47;101742.25;;;8.78;100.00
37368;BME280;23240;43.210;27.910;2022-10-30T06:24:13;101744.16;;;8.75;100.00
37368;BME280;23240;43.210;27.910;2022-10-30T06:26:39;101739.56;;;8.78;100.00
37368;BME280;23240;43.210;27.910;2022-10-30T06:29:05;101752.06;;;8.77;100.00
37368;BME280;23240;43.210;27.910;2022-10-30T06:31:30;101747.16;;;8.69;100.00
37368;BME280;23240;43.210;27.910;2022-10-30T06:33:56;101749.66;;;8.72;100.00
37368;BME280;23240;43.210;27.910;2022-10-30T06:36:21;101746.63;;;8.79;100.00
37368;BME280;23240;43.210;27.910;2022-10-30T06:38:47;101746.88;;;8.90;100.00
37368;BME280;23240;43.210;27.910;2022-10-30T06:41:12;101740.31;;;8.95;100.00
37368;BME280;23240;43.210;27.910;2022-10-30T06:43:38;101739.19;;;8.99;100.00
37368;BME280;23240;43.210;27.910;2022-10-30T06:46:04;101738.59;;;9.09;100.00
37368;BME280;23240;43.210;27.910;2022-10-30T06:48:29;101741.16;;;9.26;100.00
37368;BME280;23240;43.210;27.910;2022-10-30T06:50:58;101742.44;;;9.49;100.00
37368;BME280;23240;43.210;27.910;2022-10-30T06:53:25;101749.50;;;9.64;100.00
37368;BME280;23240;43.210;27.910;2022-10-30T06:58:20;101730.22;;;9.73;100.00
37368;BME280;23240;43.210;27.910;2022-10-30T07:00:46;101724.09;;;9.86;100.00
37368;BME280;23240;43.210;27.910;2022-10-30T07:03:11;101729.34;;;10.01;100.00
37368;BME280;23240;43.210;27.910;2022-10-30T07:05:37;101719.66;;;10.13;100.00
37368;BME280;23240;43.210;27.910;2022-10-30T07:08:02;101711.00;;;10.51;100.00
37368;BME280;23240;43.210;27.910;2022-10-30T07:10:28;101704.28;;;11.11;100.00
37368;BME280;23240;43.210;27.910;2022-10-30T07:12:54;101701.50;;;11.12;100.00
37368;BME280;23240;43.210;27.910;2022-10-30T07:15:21;101696.38;;;11.22;100.00
37368;BME280;23240;43.210;27.910;2022-10-30T07:17:52;101693.91;;;11.31;100.00
37368;BME280;23240;43.210;27.910;2022-10-30T07:20:17;101691.84;;;11.35;100.00
37368;BME280;23240;43.210;27.910;2022-10-30T07:22:43;101688.41;;;11.46;100.00
37368;BME280;23240;43.210;27.910;2022-10-30T07:25:09;101678.53;;;11.59;100.00
37368;BME280;23240;43.210;27.910;2022-10-30T07:27:43;101690.25;;;11.71;100.00
37368;BME280;23240;43.210;27.910;2022-10-30T07:30:11;101686.47;;;11.73;100.00
37368;BME280;23240;43.210;27.910;2022-10-30T07:32:37;101683.69;;;11.88;100.00
37368;BME280;23240;43.210;27.910;2022-10-30T07:35:03;101674.41;;;12.04;100.00
37368;BME280;23240;43.210;27.910;2022-10-30T07:37:29;101665.09;;;12.21;100.00
37368;BME280;23240;43.210;27.910;2022-10-30T07:39:54;101661.88;;;12.29;100.00
37368;BME280;23240;43.210;27.910;2022-10-30T07:42:20;101653.22;;;12.37;100.00
37368;BME280;23240;43.210;27.910;2022-10-30T07:44:45;101656.84;;;12.48;100.00
37368;BME280;23240;43.210;27.910;2022-10-30T07:47:10;101653.34;;;12.70;100.00
37368;BME280;23240;43.210;27.910;2022-10-30T07:49:36;101645.13;;;12.96;100.00
37368;BME280;23240;43.210;27.910;2022-10-30T07:52:02;101635.88;;;13.11;100.00
37368;BME280;23240;43.210;27.910;2022-10-30T07:54:27;101627.31;;;13.17;100.00
37368;BME280;23240;43.210;27.910;2022-10-30T07:56:52;101624.94;;;13.25;100.00
37368;BME280;23240;43.210;27.910;2022-10-30T07:59:18;101632.03;;;13.26;100.00
37368;BME280;23240;43.210;27.910;2022-10-30T08:01:43;101617.47;;;13.40;100.00
37368;BME280;23240;43.210;27.910;2022-10-30T08:04:09;101619.53;;;13.48;100.00
37368;BME280;23240;43.210;27.910;2022-10-30T08:06:38;101611.22;;;13.62;100.00
37368;BME280;23240;43.210;27.910;2022-10-30T08:09:04;101608.25;;;13.76;100.00
37368;BME280;23240;43.210;27.910;2022-10-30T08:11:30;101598.81;;;13.93;100.00
37368;BME280;23240;43.210;27.910;2022-10-30T08:13:55;101606.94;;;14.14;100.00
37368;BME280;23240;43.210;27.910;2022-10-30T08:16:21;101603.72;;;14.31;100.00
37368;BME280;23240;43.210;27.910;2022-10-30T08:18:46;101596.19;;;14.46;100.00
37368;BME280;23240;43.210;27.910;2022-10-30T08:21:12;101594.09;;;14.50;100.00
37368;BME280;23240;43.210;27.910;2022-10-30T08:23:37;101587.22;;;14.57;100.00
37368;BME280;23240;43.210;27.910;2022-10-30T08:26:03;101592.31;;;14.60;100.00
37368;BME280;23240;43.210;27.910;2022-10-30T08:28:30;101585.19;;;14.70;100.00
37368;BME280;23240;43.210;27.910;2022-10-30T08:30:57;101586.59;;;14.74;100.00
37368;BME280;23240;43.210;27.910;2022-10-30T08:33:22;101584.84;;;14.84;100.00
37368;BME280;23240;43.210;27.910;2022-10-30T08:35:49;101582.63;;;14.89;100.00
37368;BME280;23240;43.210;27.910;2022-10-30T08:38:16;101578.84;;;15.02;100.00
37368;BME280;23240;43.210;27.910;2022-10-30T08:40:41;101581.97;;;15.07;100.00
37368;BME280;23240;43.210;27.910;2022-10-30T08:43:07;101579.94;;;15.20;100.00
37368;BME280;23240;43.210;27.910;2022-10-30T08:45:33;101576.53;;;15.28;100.00
37368;BME280;23240;43.210;27.910;2022-10-30T08:48:00;101573.75;;;15.39;100.00
37368;BME280;23240;43.210;27.910;2022-10-30T08:50:28;101572.66;;;15.51;100.00
37368;BME280;23240;43.210;27.910;2022-10-30T08:52:53;101566.56;;;15.59;100.00
37368;BME280;23240;43.210;27.910;2022-10-30T08:55:18;101560.09;;;15.71;100.00
37368;BME280;23240;43.210;27.910;2022-10-30T08:57:44;101561.09;;;15.80;100.00
37368;BME280;23240;43.210;27.910;2022-10-30T09:00:11;101564.56;;;15.91;100.00
37368;BME280;23240;43.210;27.910;2022-10-30T09:02:37;101562.56;;;15.93;100.00
37368;BME280;23240;43.210;27.910;2022-10-30T09:05:05;101557.16;;;16.03;100.00
37368;BME280;23240;43.210;27.910;2022-10-30T09:07:31;101563.31;;;16.15;100.00
37368;BME280;23240;43.210;27.910;2022-10-30T09:09:56;101555.03;;;16.26;100.00
37368;BME280;23240;43.210;27.910;2022-10-30T09:12:22;101544.06;;;16.37;100.00
37368;BME280;23240;43.210;27.910;2022-10-30T09:14:47;101546.78;;;16.37;100.00
37368;BME280;23240;43.210;27.910;2022-10-30T09:17:13;101545.22;;;16.44;100.00
37368;BME280;23240;43.210;27.910;2022-10-30T09:19:38;101537.78;;;16.56;100.00
37368;BME280;23240;43.210;27.910;2022-10-30T09:22:04;101530.66;;;16.65;100.00
37368;BME280;23240;43.210;27.910;2022-10-30T09:24:29;101530.34;;;16.68;100.00
37368;BME280;23240;43.210;27.910;2022-10-30T09:26:55;101528.66;;;16.77;100.00
37368;BME280;23240;43.210;27.910;2022-10-30T09:29:21;101517.31;;;16.73;100.00
37368;BME280;23240;43.210;27.910;2022-10-30T09:31:46;101517.84;;;16.77;100.00
37368;BME280;23240;43.210;27.910;2022-10-30T09:34:12;101508.69;;;16.87;100.00
37368;BME280;23240;43.210;27.910;2022-10-30T09:36:37;101507.25;;;17.03;100.00
37368;BME280;23240;43.210;27.910;2022-10-30T09:39:03;101501.63;;;17.14;100.00
37368;BME280;23240;43.210;27.910;2022-10-30T09:55:53;101466.66;;;17.76;100.00
37368;BME280;23240;43.210;27.910;2022-10-30T09:58:38;101469.97;;;17.87;100.00
37368;BME280;23240;43.210;27.910;2022-10-30T10:01:20;101473.63;;;17.96;100.00
37368;BME280;23240;43.210;27.910;2022-10-30T10:06:27;101460.66;;;18.08;100.00
37368;BME280;23240;43.210;27.910;2022-10-30T10:09:00;101448.88;;;18.17;99.71
37368;BME280;23240;43.210;27.910;2022-10-30T10:11:41;101447.72;;;18.19;99.11
37368;BME280;23240;43.210;27.910;2022-10-30T10:14:21;101448.47;;;18.30;98.93
37368;BME280;23240;43.210;27.910;2022-10-30T10:16:51;101444.09;;;18.37;98.02
37368;BME280;23240;43.210;27.910;2022-10-30T10:19:40;101443.00;;;18.47;96.87
37368;BME280;23240;43.210;27.910;2022-10-30T10:24:56;101442.72;;;18.59;93.00
37368;BME280;23240;43.210;27.910;2022-10-30T10:30:16;101430.13;;;18.75;89.88
37368;BME280;23240;43.210;27.910;2022-10-30T10:51:42;101408.59;;;19.16;79.12
37368;BME280;23240;43.210;27.910;2022-10-30T10:54:15;101406.41;;;19.20;81.41
37368;BME280;23240;43.210;27.910;2022-10-30T10:56:44;101400.13;;;19.27;79.76
37368;BME280;23240;43.210;27.910;2022-10-30T10:59:47;101390.81;;;19.38;77.34
37368;BME280;23240;43.210;27.910;2022-10-30T11:04:59;101377.41;;;19.53;76.76
37368;BME280;23240;43.210;27.910;2022-10-30T11:07:32;101382.03;;;19.61;74.73
37368;BME280;23240;43.210;27.910;2022-10-30T11:09:59;101377.63;;;19.60;75.78
37368;BME280;23240;43.210;27.910;2022-10-30T11:12:36;101371.16;;;19.61;76.27
37368;BME280;23240;43.210;27.910;2022-10-30T11:17:58;101360.16;;;19.79;72.00
37368;BME280;23240;43.210;27.910;2022-10-30T11:20:41;101349.41;;;19.77;73.09
37368;BME280;23240;43.210;27.910;2022-10-30T11:23:43;101360.16;;;19.79;75.09
37368;BME280;23240;43.210;27.910;2022-10-30T11:28:56;101359.97;;;19.88;72.90
37368;BME280;23240;43.210;27.910;2022-10-30T11:31:28;101344.66;;;19.95;70.47
37368;BME280;23240;43.210;27.910;2022-10-30T11:36:52;101345.97;;;20.16;66.54
37368;BME280;23240;43.210;27.910;2022-10-30T11:39:21;101328.63;;;20.25;64.87
37368;BME280;23240;43.210;27.910;2022-10-30T11:47:06;101325.22;;;20.23;67.85
37368;BME280;23240;43.210;27.910;2022-10-30T11:49:46;101333.72;;;20.28;67.99
37368;BME280;23240;43.210;27.910;2022-10-30T11:52:15;101331.13;;;20.43;64.94
37368;BME280;23240;43.210;27.910;2022-10-30T11:54:54;101324.50;;;20.45;63.77
37368;BME280;23240;43.210;27.910;2022-10-30T11:57:23;101320.91;;;20.45;70.74
37368;BME280;23240;43.210;27.910;2022-10-30T11:59:53;101326.34;;;20.53;97.01
37368;BME280;23240;43.210;27.910;2022-10-30T12:02:20;101332.69;;;20.37;100.00
37368;BME280;23240;43.210;27.910;2022-10-30T12:04:47;101329.00;;;20.14;100.00
37368;BME280;23240;43.210;27.910;2022-10-30T12:09:46;101319.00;;;19.90;100.00
37368;BME280;23240;43.210;27.910;2022-10-30T12:12:31;101316.28;;;19.82;100.00
37368;BME280;23240;43.210;27.910;2022-10-30T12:17:38;101320.38;;;19.61;100.00
37368;BME280;23240;43.210;27.910;2022-10-30T12:20:06;101318.84;;;19.50;100.00
37368;BME280;23240;43.210;27.910;2022-10-30T12:22:33;101327.81;;;19.35;100.00
37368;BME280;23240;43.210;27.910;2022-10-30T12:25:02;101321.69;;;19.33;100.00
37368;BME280;23240;43.210;27.910;2022-10-30T12:27:30;101322.19;;;19.28;100.00
37368;BME280;23240;43.210;27.910;2022-10-30T12:32:42;101324.91;;;19.12;100.00
37368;BME280;23240;43.210;27.910;2022-10-30T12:37:46;101332.47;;;18.84;100.00
37368;BME280;23240;43.210;27.910;2022-10-30T12:40:27;101335.31;;;18.74;100.00
37368;BME280;23240;43.210;27.910;2022-10-30T12:45:38;101329.56;;;18.51;100.00
37368;BME280;23240;43.210;27.910;2022-10-30T12:53:47;101329.88;;;18.40;100.00
37368;BME280;23240;43.210;27.910;2022-10-30T12:56:19;101337.09;;;18.31;100.00
37368;BME280;23240;43.210;27.910;2022-10-30T13:01:33;101343.09;;;18.09;100.00
37368;BME280;23240;43.210;27.910;2022-10-30T13:04:12;101332.19;;;18.01;100.00
37368;BME280;23240;43.210;27.910;2022-10-30T13:06:48;101345.84;;;17.91;100.00
37368;BME280;23240;43.210;27.910;2022-10-30T13:12:06;101342.22;;;17.82;100.00
37368;BME280;23240;43.210;27.910;2022-10-30T13:17:10;101341.16;;;17.75;100.00
37368;BME280;23240;43.210;27.910;2022-10-30T13:19:38;101350.28;;;17.74;100.00
37368;BME280;23240;43.210;27.910;2022-10-30T13:22:17;101336.31;;;17.69;100.00
37368;BME280;23240;43.210;27.910;2022-10-30T13:25:02;101342.06;;;17.66;100.00
37368;BME280;23240;43.210;27.910;2022-10-30T13:27:43;101348.09;;;17.60;100.00
37368;BME280;23240;43.210;27.910;2022-10-30T13:30:16;101357.56;;;17.56;100.00
37368;BME280;23240;43.210;27.910;2022-10-30T13:38:12;101349.19;;;17.49;100.00
37368;BME280;23240;43.210;27.910;2022-10-30T13:40:45;101362.03;;;17.47;100.00
37368;BME280;23240;43.210;27.910;2022-10-30T13:46:33;101358.09;;;17.41;100.00
37368;BME280;23240;43.210;27.910;2022-10-30T13:52:12;101349.34;;;17.30;100.00
37368;BME280;23240;43.210;27.910;2022-10-30T13:54:43;101352.91;;;17.30;100.00
37368;BME280;23240;43.210;27.910;2022-10-30T14:02:41;101353.53;;;17.24;100.00
37368;BME280;23240;43.210;27.910;2022-10-30T14:10:47;101344.47;;;17.15;100.00
37368;BME280;23240;43.210;27.910;2022-10-30T14:18:28;101341.63;;;17.17;100.00
37368;BME280;23240;43.210;27.910;2022-10-30T14:20:54;101336.34;;;17.15;100.00
37368;BME280;23240;43.210;27.910;2022-10-30T14:23:33;101335.09;;;17.10;100.00
37368;BME280;23240;43.210;27.910;2022-10-30T14:28:32;101336.41;;;17.06;100.00
37368;BME280;23240;43.210;27.910;2022-10-30T14:31:15;101336.97;;;17.09;100.00
37368;BME280;23240;43.210;27.910;2022-10-30T14:33:45;101335.44;;;17.07;100.00
37368;BME280;23240;43.210;27.910;2022-10-30T14:36:14;101338.44;;;17.04;100.00
37368;BME280;23240;43.210;27.910;2022-10-30T14:38:40;101333.31;;;17.01;100.00
37368;BME280;23240;43.210;27.910;2022-10-30T14:44:02;101338.44;;;17.04;100.00
37368;BME280;23240;43.210;27.910;2022-10-30T14:46:42;101334.59;;;16.96;100.00
37368;BME280;23240;43.210;27.910;2022-10-30T14:52:03;101325.97;;;16.93;100.00
37368;BME280;23240;43.210;27.910;2022-10-30T14:57:50;101336.13;;;16.81;100.00
37368;BME280;23240;43.210;27.910;2022-10-30T15:02:57;101332.19;;;16.76;100.00
37368;BME280;23240;43.210;27.910;2022-10-30T15:05:50;101335.91;;;16.75;100.00
37368;BME280;23240;43.210;27.910;2022-10-30T15:11:56;101329.78;;;16.73;100.00
37368;BME280;23240;43.210;27.910;2022-10-30T15:14:03;101329.34;;;16.67;100.00
37368;BME280;23240;43.210;27.910;2022-10-30T15:16:33;101333.38;;;16.63;100.00
37368;BME280;23240;43.210;27.910;2022-10-30T15:19:05;101332.19;;;16.66;100.00
37368;BME280;23240;43.210;27.910;2022-10-30T15:21:38;101329.66;;;16.64;100.00
37368;BME280;23240;43.210;27.910;2022-10-30T15:24:13;101325.09;;;16.65;100.00